Map

Track Data

SID SEASON NUMBER BASIN SUBBASIN NAME ISO_TIME NATURE LAT LON WMO_WIND WMO_PRES WMO_AGENCY TRACK_TYPE DIST2LAND LANDFALL IFLAG USA_AGENCY USA_ATCF_ID USA_LAT USA_LON USA_RECORD USA_STATUS USA_WIND USA_PRES USA_SSHS USA_R34_NE USA_R34_SE USA_R34_SW USA_R34_NW USA_R50_NE USA_R50_SE USA_R50_SW USA_R50_NW USA_R64_NE USA_R64_SE USA_R64_SW USA_R64_NW USA_POCI USA_ROCI USA_RMW USA_EYE TOKYO_LAT TOKYO_LON TOKYO_GRADE TOKYO_WIND TOKYO_PRES TOKYO_R50_DIR TOKYO_R50_LONG TOKYO_R50_SHORT TOKYO_R30_DIR TOKYO_R30_LONG TOKYO_R30_SHORT TOKYO_LAND CMA_LAT CMA_LON CMA_CAT CMA_WIND CMA_PRES HKO_LAT HKO_LON HKO_CAT HKO_WIND HKO_PRES NEWDELHI_LAT NEWDELHI_LON NEWDELHI_GRADE NEWDELHI_WIND NEWDELHI_PRES NEWDELHI_CI NEWDELHI_DP NEWDELHI_POCI REUNION_LAT REUNION_LON REUNION_TYPE REUNION_WIND REUNION_PRES REUNION_TNUM REUNION_CI REUNION_RMW REUNION_R34_NE REUNION_R34_SE REUNION_R34_SW REUNION_R34_NW REUNION_R50_NE REUNION_R50_SE REUNION_R50_SW REUNION_R50_NW REUNION_R64_NE REUNION_R64_SE REUNION_R64_SW REUNION_R64_NW BOM_LAT BOM_LON BOM_TYPE BOM_WIND BOM_PRES BOM_TNUM BOM_CI BOM_RMW BOM_R34_NE BOM_R34_SE BOM_R34_SW BOM_R34_NW BOM_R50_NE BOM_R50_SE BOM_R50_SW BOM_R50_NW BOM_R64_NE BOM_R64_SE BOM_R64_SW BOM_R64_NW BOM_ROCI BOM_POCI BOM_EYE BOM_POS_METHOD BOM_PRES_METHOD NADI_LAT NADI_LON NADI_CAT NADI_WIND NADI_PRES WELLINGTON_LAT WELLINGTON_LON WELLINGTON_WIND WELLINGTON_PRES DS824_LAT DS824_LON DS824_STAGE DS824_WIND DS824_PRES TD9636_LAT TD9636_LON TD9636_STAGE TD9636_WIND TD9636_PRES TD9635_LAT TD9635_LON TD9635_WIND TD9635_PRES TD9635_ROCI NEUMANN_LAT NEUMANN_LON NEUMANN_CLASS NEUMANN_WIND NEUMANN_PRES MLC_LAT MLC_LON MLC_CLASS MLC_WIND MLC_PRES USA_GUST BOM_GUST BOM_GUST_PER REUNION_GUST REUNION_GUST_PER USA_SEAHGT USA_SEARAD_NE USA_SEARAD_SE USA_SEARAD_SW USA_SEARAD_NW STORM_SPEED STORM_DIR
2000270N11330 2000 89 NA NA JOYCE 2000-09-25 12:00:00 TS 11.2000 -29.6000 25 1009 hurdat_atl main 1368 1368 O_____________ hurdat_atl AL142000 11.2000 -29.6000 TD 25 1009 -1 11 282
2000270N11330 2000 89 NA NA JOYCE 2000-09-25 15:00:00 TS 11.3101 -30.1374 main 1417 1417 P_____________ AL142000 11.3101 -30.1374 TD 27 1009 -1 11 281
2000270N11330 2000 89 NA NA JOYCE 2000-09-25 18:00:00 TS 11.4000 -30.7000 30 1009 hurdat_atl main 1477 1477 O_____________ hurdat_atl AL142000 11.4000 -30.7000 TD 30 1009 -1 12 277
2000270N11330 2000 89 NA NA JOYCE 2000-09-25 21:00:00 TS 11.4575 -31.3001 main 1537 1537 P_____________ AL142000 11.4575 -31.3001 TD 32 1008 -1 12 275
2000270N11330 2000 89 NA NA JOYCE 2000-09-26 00:00:00 TS 11.5000 -31.9000 35 1008 hurdat_atl main 1600 1600 O_____________ hurdat_atl AL142000 11.5000 -31.9000 TS 35 1008 0 11 275
2000270N11330 2000 89 NA NA JOYCE 2000-09-26 03:00:00 TS 11.5574 -32.4575 main 1661 1661 P_____________ AL142000 11.5574 -32.4575 TS 35 1007 0 11 275
2000270N11330 2000 89 NA NA JOYCE 2000-09-26 06:00:00 TS 11.6000 -33.0000 35 1007 hurdat_atl main 1714 1714 O_____________ hurdat_atl AL142000 11.6000 -33.0000 TS 35 1007 0 11 272
2000270N11330 2000 89 NA NA JOYCE 2000-09-26 09:00:00 TS 11.5999 -33.5426 main 1767 1742 P_____________ AL142000 11.5999 -33.5426 TS 35 1006 0 11 270
2000270N11330 2000 89 NA NA JOYCE 2000-09-26 12:00:00 TS 11.6000 -34.1000 35 1005 hurdat_atl main 1742 1719 O_____________ hurdat_atl AL142000 11.6000 -34.1000 TS 35 1005 0 11 271
2000270N11330 2000 89 NA NA JOYCE 2000-09-26 15:00:00 TS 11.6200 -34.7001 main 1719 1709 P_____________ AL142000 11.6200 -34.7001 TS 37 1003 0 12 275
2000270N11330 2000 89 NA NA JOYCE 2000-09-26 18:00:00 TS 11.7000 -35.3000 40 1002 hurdat_atl main 1709 1703 O_____________ hurdat_atl AL142000 11.7000 -35.3000 TS 40 1002 0 12 284
2000270N11330 2000 89 NA NA JOYCE 2000-09-26 21:00:00 TS 11.8998 -35.8498 main 1716 1710 P_____________ AL142000 11.8998 -35.8498 TS 45 1000 0 12 290
2000270N11330 2000 89 NA NA JOYCE 2000-09-27 00:00:00 TS 12.1000 -36.4000 50 998 hurdat_atl main 1722 1715 O_____________ hurdat_atl AL142000 12.1000 -36.4000 TS 50 998 0 12 283
2000270N11330 2000 89 NA NA JOYCE 2000-09-27 03:00:00 TS 12.1649 -36.9927 main 1719 1709 P_____________ AL142000 12.1649 -36.9927 TS 52 995 0 12 275
2000270N11330 2000 89 NA NA JOYCE 2000-09-27 06:00:00 TS 12.2000 -37.6000 55 993 hurdat_atl main 1709 1697 O_____________ hurdat_atl AL142000 12.2000 -37.6000 TS 55 993 0 12 277
2000270N11330 2000 89 NA NA JOYCE 2000-09-27 09:00:00 TS 12.2998 -38.1925 main 1697 1647 P_____________ AL142000 12.2998 -38.1925 TS 60 989 0 12 280
2000270N11330 2000 89 NA NA JOYCE 2000-09-27 12:00:00 TS 12.4000 -38.8000 65 985 hurdat_atl main 1647 1599 O_____________ hurdat_atl AL142000 12.4000 -38.8000 HU 65 985 1 12 278
2000270N11330 2000 89 NA NA JOYCE 2000-09-27 15:00:00 TS 12.4724 -39.4500 main 1599 1536 P_____________ AL142000 12.4724 -39.4500 HU 67 981 1 13 275
2000270N11330 2000 89 NA NA JOYCE 2000-09-27 18:00:00 TS 12.5000 -40.1000 70 978 hurdat_atl main 1536 1484 O_____________ hurdat_atl AL142000 12.5000 -40.1000 HU 70 978 1 12 270
2000270N11330 2000 89 NA NA JOYCE 2000-09-27 21:00:00 TS 12.4723 -40.7075 main 1484 1426 P_____________ AL142000 12.4723 -40.7075 HU 72 977 1 12 265
2000270N11330 2000 89 NA NA JOYCE 2000-09-28 00:00:00 TS 12.4000 -41.3000 75 976 hurdat_atl main 1426 1368 O_____________ hurdat_atl AL142000 12.4000 -41.3000 HU 75 976 1 12 263
2000270N11330 2000 89 NA NA JOYCE 2000-09-28 03:00:00 TS 12.3298 -41.8923 main 1368 1311 P_____________ AL142000 12.3298 -41.8923 HU 77 975 1 12 260
2000270N11330 2000 89 NA NA JOYCE 2000-09-28 06:00:00 TS 12.2000 -42.5000 80 975 hurdat_atl main 1311 1248 O_____________ hurdat_atl AL142000 12.2000 -42.5000 HU 80 975 1 13 253
2000270N11330 2000 89 NA NA JOYCE 2000-09-28 09:00:00 TS 11.9650 -43.1501 main 1240 1170 P_____________ AL142000 11.9650 -43.1501 HU 80 975 1 14 249
2000270N11330 2000 89 NA NA JOYCE 2000-09-28 12:00:00 TS 11.7000 -43.8000 80 975 hurdat_atl main 1170 1108 O_____________ hurdat_atl AL142000 11.7000 -43.8000 HU 80 975 1 13 249
2000270N11330 2000 89 NA NA JOYCE 2000-09-28 15:00:00 TS 11.4924 -44.4149 main 1108 1047 P_____________ AL142000 11.4924 -44.4149 HU 77 975 1 12 251
2000270N11330 2000 89 NA NA JOYCE 2000-09-28 18:00:00 TS 11.3000 -45.0000 75 976 hurdat_atl main 1047 994 O_____________ hurdat_atl AL142000 11.3000 -45.0000 HU 75 976 1 12 250
2000270N11330 2000 89 NA NA JOYCE 2000-09-28 21:00:00 TS 11.0849 -45.5575 main 987 935 P_____________ AL142000 11.0849 -45.5575 HU 75 976 1 12 250
2000270N11330 2000 89 NA NA JOYCE 2000-09-29 00:00:00 TS 10.9000 -46.1000 75 977 hurdat_atl main 935 893 O_____________ hurdat_atl AL142000 10.9000 -46.1000 HU 75 977 1 11 254
2000270N11330 2000 89 NA NA JOYCE 2000-09-29 03:00:00 TS 10.7848 -46.6274 main 893 847 P_____________ AL142000 10.7848 -46.6274 HU 72 978 1 11 260
2000270N11330 2000 89 NA NA JOYCE 2000-09-29 06:00:00 TS 10.7000 -47.2000 70 980 hurdat_atl main 847 803 O_____________ hurdat_atl AL142000 10.7000 -47.2000 HU 70 980 1 12 261
2000270N11330 2000 89 NA NA JOYCE 2000-09-29 09:00:00 TS 10.5849 -47.8701 main 796 739 P_____________ AL142000 10.5849 -47.8701 HU 67 982 1 14 262
2000270N11330 2000 89 NA NA JOYCE 2000-09-29 12:00:00 TS 10.5000 -48.6000 65 984 hurdat_atl main 739 696 O_____________ hurdat_atl AL142000 10.5000 -48.6000 HU 65 984 1 14 266
2000270N11330 2000 89 NA NA JOYCE 2000-09-29 15:00:00 TS 10.4923 -49.3349 main 696 654 P_____________ AL142000 10.4923 -49.3349 HU 62 986 0 15 270
2000270N11330 2000 89 NA NA JOYCE 2000-09-29 18:00:00 TS 10.5000 -50.1000 60 988 hurdat_atl main 654 622 O_____________ hurdat_atl AL142000 10.5000 -50.1000 TS 60 988 0 15 269
2000270N11330 2000 89 NA NA JOYCE 2000-09-29 21:00:00 TS 10.4574 -50.8925 main 619 574 P_____________ AL142000 10.4574 -50.8925 TS 57 990 0 16 266
2000270N11330 2000 89 NA NA JOYCE 2000-09-30 00:00:00 TS 10.4000 -51.7000 55 992 hurdat_atl main 574 527 O_____________ hurdat_atl AL142000 10.4000 -51.7000 TS 55 992 0 16 266
2000270N11330 2000 89 NA NA JOYCE 2000-09-30 03:00:00 TS 10.3423 -52.5000 main 527 502 P_____________ AL142000 10.3423 -52.5000 TS 52 994 0 16 266
2000270N11330 2000 89 NA NA JOYCE 2000-09-30 06:00:00 TS 10.3000 -53.3000 50 996 hurdat_atl main 502 493 O_____________ hurdat_atl AL142000 10.3000 -53.3000 TS 50 996 0 16 268
2000270N11330 2000 89 NA NA JOYCE 2000-09-30 09:00:00 TS 10.2772 -54.0926 main 493 492 P_____________ AL142000 10.2772 -54.0926 TS 47 998 0 16 270
2000270N11330 2000 89 NA NA JOYCE 2000-09-30 12:00:00 TS 10.3000 -54.9000 45 1000 hurdat_atl main 492 451 O_____________ hurdat_atl AL142000 10.3000 -54.9000 TS 45 1000 0 17 274
2000270N11330 2000 89 NA NA JOYCE 2000-09-30 15:00:00 TS 10.3850 -55.7649 main 442 384 P_____________ AL142000 10.3850 -55.7649 TS 42 1001 0 17 277
2000270N11330 2000 89 NA NA JOYCE 2000-09-30 18:00:00 TS 10.5000 -56.6000 40 1003 hurdat_atl main 384 345 O_____________ hurdat_atl AL142000 10.5000 -56.6000 TS 40 1003 0 15 278
2000270N11330 2000 89 NA NA JOYCE 2000-09-30 21:00:00 TS 10.5921 -57.3151 main 345 319 P_____________ AL142000 10.5921 -57.3151 TS 40 1004 0 14 278
2000270N11330 2000 89 NA NA JOYCE 2000-10-01 00:00:00 TS 10.7000 -58.0000 40 1005 hurdat_atl main 319 251 O_____________ hurdat_atl AL142000 10.7000 -58.0000 TS 40 1005 0 14 280
2000270N11330 2000 89 NA NA JOYCE 2000-10-01 03:00:00 TS 10.8424 -58.7500 main 251 167 P_____________ AL142000 10.8424 -58.7500 TS 37 1005 0 15 282
2000270N11330 2000 89 NA NA JOYCE 2000-10-01 06:00:00 TS 11.0000 -59.5000 35 1006 hurdat_atl main 167 98 O_____________ hurdat_atl AL142000 11.0000 -59.5000 TS 35 1006 0 15 282
2000270N11330 2000 89 NA NA JOYCE 2000-10-01 09:00:00 TS 11.1423 -60.2076 main 98 64 P_____________ AL142000 11.1423 -60.2076 TS 35 1006 0 14 282
2000270N11330 2000 89 NA CS JOYCE 2000-10-01 12:00:00 TS 11.3000 -60.9000 35 1007 hurdat_atl main 68 67 O_____________ hurdat_atl AL142000 11.3000 -60.9000 TS 35 1007 0 14 285
2000270N11330 2000 89 NA CS JOYCE 2000-10-01 15:00:00 TS 11.5074 -61.6149 main 89 89 P_____________ AL142000 11.5074 -61.6149 TS 32 1007 -1 14 286
2000270N11330 2000 89 NA CS JOYCE 2000-10-01 18:00:00 TS 11.7000 -62.3000 30 1008 hurdat_atl main 111 111 O_____________ hurdat_atl AL142000 11.7000 -62.3000 TD 30 1008 -1 13 284
2000270N11330 2000 89 NA CS JOYCE 2000-10-01 21:00:00 TS 11.8297 -62.9001 main 123 123 P_____________ AL142000 11.8297 -62.9001 TD 30 1008 -1 12 280
2000270N11330 2000 89 NA CS JOYCE 2000-10-02 00:00:00 TS 11.9000 -63.5000 30 1009 hurdat_atl main 141 141 O_____________ hurdat_atl AL142000 11.9000 -63.5000 TD 30 1009 -1 13 274
2000270N11330 2000 89 NA CS JOYCE 2000-10-02 03:00:00 TS 11.9155 -64.1750 main 145 145 P_____________ AL142000 11.9155 -64.1750 TD 27 1009 -1 14 270
2000270N11330 2000 89 NA CS JOYCE 2000-10-02 06:00:00 TS 11.9000 -64.9000 25 1009 hurdat_atl main 164 O_____________ hurdat_atl AL142000 11.9000 -64.9000 TD 25 1009 -1 14 269

About IBTrACS Database

This database is a web-friendly format of International Best Track Archive for Climate Stewardship (IBTrACS), a global best track data archive curated by NOAA dating back to 1842.

Updated: 2021-11-26